createdAt,value
2023-04-06T00:02:25.932Z,10.33
2023-04-06T00:04:52.483Z,7.73
2023-04-06T00:07:18.863Z,6.67
2023-04-06T00:09:45.750Z,5.97
2023-04-06T00:12:12.112Z,6.37
2023-04-06T00:14:38.523Z,6.70
2023-04-06T00:17:05.049Z,8.87
2023-04-06T00:19:31.523Z,8.47
2023-04-06T00:21:58.099Z,7.47
2023-04-06T00:24:24.615Z,9.87
2023-04-06T00:26:51.065Z,10.00
2023-04-06T00:29:17.448Z,8.30
2023-04-06T00:31:44.074Z,11.17
2023-04-06T00:34:11.115Z,9.00
2023-04-06T00:36:37.754Z,9.93
2023-04-06T00:39:04.305Z,9.57
2023-04-06T00:41:31.100Z,10.17
2023-04-06T00:43:57.666Z,7.63
2023-04-06T00:46:24.473Z,10.23
2023-04-06T00:48:51.200Z,8.43
2023-04-06T00:51:17.809Z,7.03
2023-04-06T00:53:44.205Z,12.17
2023-04-06T00:56:10.990Z,8.67
2023-04-06T00:58:41.537Z,8.97
2023-04-06T01:01:08.059Z,8.27
2023-04-06T01:03:34.529Z,7.60
2023-04-06T01:06:00.974Z,7.47
2023-04-06T01:08:27.891Z,6.50
2023-04-06T01:10:54.367Z,7.33
2023-04-06T01:13:21.110Z,8.27
2023-04-06T01:15:48.137Z,7.90
2023-04-06T01:18:14.611Z,7.80
2023-04-06T01:20:41.348Z,8.00
2023-04-06T01:23:07.699Z,6.37
2023-04-06T01:25:34.115Z,9.60
2023-04-06T01:28:00.553Z,11.43
2023-04-06T01:30:27.409Z,7.13
2023-04-06T01:32:53.987Z,6.27
2023-04-06T01:35:20.711Z,9.07
2023-04-06T01:37:47.225Z,6.93
2023-04-06T01:40:14.669Z,8.23
2023-04-06T01:42:41.231Z,8.00
2023-04-06T01:45:08.139Z,8.10
2023-04-06T01:47:34.554Z,7.80
2023-04-06T01:50:01.183Z,7.03
2023-04-06T01:52:27.758Z,7.73
2023-04-06T01:54:54.125Z,9.40
2023-04-06T01:57:21.005Z,7.83
2023-04-06T01:59:47.465Z,6.40
2023-04-06T02:02:14.013Z,10.33
2023-04-06T02:04:40.765Z,8.33
2023-04-06T02:07:07.350Z,7.67
2023-04-06T02:09:33.841Z,7.60
2023-04-06T02:12:01.475Z,6.80
2023-04-06T02:14:28.316Z,8.80
2023-04-06T02:16:55.210Z,7.70
2023-04-06T02:19:21.923Z,8.13
2023-04-06T02:21:48.331Z,8.87
2023-04-06T02:24:14.733Z,8.87
2023-04-06T02:26:41.098Z,9.13
2023-04-06T02:29:08.443Z,8.60
2023-04-06T02:31:35.250Z,7.13
2023-04-06T02:34:01.689Z,7.13
2023-04-06T02:36:28.058Z,8.17
2023-04-06T02:38:54.388Z,7.37
2023-04-06T02:41:20.934Z,9.53
2023-04-06T02:43:47.282Z,7.00
2023-04-06T02:46:13.710Z,8.00
2023-04-06T02:48:40.467Z,8.17
2023-04-06T02:51:07.068Z,8.43
2023-04-06T02:53:33.496Z,8.40
2023-04-06T02:56:00.020Z,7.90
2023-04-06T02:58:26.401Z,9.87
2023-04-06T03:00:52.749Z,8.63
2023-04-06T03:03:19.232Z,9.27
2023-04-06T03:05:45.630Z,7.13
2023-04-06T03:08:12.027Z,7.47
2023-04-06T03:10:38.710Z,7.20
2023-04-06T03:13:05.099Z,8.57
2023-04-06T03:15:31.542Z,10.50
2023-04-06T03:18:00.424Z,9.10
2023-04-06T03:20:27.102Z,9.33
2023-04-06T03:22:53.479Z,9.40
2023-04-06T03:25:19.942Z,6.93
2023-04-06T03:27:46.337Z,8.23
2023-04-06T03:30:13.001Z,8.30
2023-04-06T03:32:39.432Z,9.57
2023-04-06T03:35:06.249Z,11.03
2023-04-06T03:37:32.668Z,12.17
2023-04-06T03:39:59.080Z,8.53
2023-04-06T03:42:25.748Z,8.23
2023-04-06T03:44:52.162Z,10.70
2023-04-06T03:47:18.630Z,8.00
2023-04-06T03:49:44.979Z,10.50
2023-04-06T03:52:11.393Z,10.50
2023-04-06T03:54:37.810Z,8.63
2023-04-06T03:57:05.399Z,10.63
2023-04-06T03:59:31.856Z,7.87
2023-04-06T04:01:58.275Z,6.83
2023-04-06T04:04:24.682Z,8.37
2023-04-06T04:06:51.257Z,7.53
2023-04-06T04:09:17.664Z,9.70
2023-04-06T04:11:44.304Z,10.13
2023-04-06T04:14:10.924Z,16.90
2023-04-06T04:16:37.416Z,8.00
2023-04-06T04:19:04.042Z,7.87
2023-04-06T04:21:32.459Z,7.57
2023-04-06T04:23:58.856Z,6.87
2023-04-06T04:26:25.824Z,8.90
2023-04-06T04:28:52.223Z,7.33
2023-04-06T04:31:19.177Z,6.73
2023-04-06T04:33:45.805Z,8.33
2023-04-06T04:36:12.572Z,8.93
2023-04-06T04:38:38.982Z,6.53
2023-04-06T04:41:05.389Z,10.53
2023-04-06T04:43:32.882Z,10.17
2023-04-06T04:46:00.351Z,7.20
2023-04-06T04:48:27.111Z,9.97
2023-04-06T04:50:53.645Z,10.00
2023-04-06T04:53:20.081Z,10.47
2023-04-06T04:55:46.440Z,7.80
2023-04-06T04:58:17.328Z,8.70
2023-04-06T05:00:44.321Z,9.07
2023-04-06T05:03:24.753Z,6.70
2023-04-06T05:05:51.493Z,12.80
2023-04-06T05:08:18.091Z,8.60
2023-04-06T05:10:46.010Z,7.47
2023-04-06T05:13:12.622Z,14.27
2023-04-06T05:15:39.370Z,8.90
2023-04-06T05:18:06.895Z,9.87
2023-04-06T05:20:33.543Z,7.67
2023-04-06T05:23:00.262Z,7.73
2023-04-06T05:25:26.859Z,8.10
2023-04-06T05:27:53.559Z,10.80
2023-04-06T05:30:21.378Z,12.57
2023-04-06T05:32:48.000Z,8.93
2023-04-06T05:35:14.545Z,12.70
2023-04-06T05:37:41.064Z,14.30
2023-04-06T05:40:08.048Z,7.90
2023-04-06T05:42:39.405Z,9.43
2023-04-06T05:45:07.290Z,8.00
2023-04-06T05:47:33.742Z,9.40
2023-04-06T05:50:00.966Z,10.27
2023-04-06T05:52:27.519Z,9.57
2023-04-06T05:54:53.910Z,10.73
2023-04-06T05:57:20.468Z,10.37
2023-04-06T05:59:47.065Z,6.63
2023-04-06T06:02:13.626Z,7.93
2023-04-06T06:04:40.058Z,6.13
2023-04-06T06:07:06.504Z,11.10
2023-04-06T06:09:32.892Z,8.37
2023-04-06T06:11:59.526Z,8.67
2023-04-06T06:14:25.998Z,6.77
2023-04-06T06:16:52.371Z,6.33
2023-04-06T06:19:18.796Z,11.33
2023-04-06T06:21:45.376Z,10.20
2023-04-06T06:24:11.826Z,8.73
2023-04-06T06:26:40.228Z,9.07
2023-04-06T06:29:07.703Z,7.13
2023-04-06T06:31:34.260Z,6.77
2023-04-06T06:34:00.827Z,7.43
2023-04-06T06:36:27.202Z,6.47
2023-04-06T06:38:53.634Z,11.47
2023-04-06T06:41:20.318Z,6.17
2023-04-06T06:43:46.763Z,6.20
2023-04-06T06:46:13.231Z,7.70
2023-04-06T06:48:40.046Z,5.47
2023-04-06T06:51:06.513Z,6.67
2023-04-06T06:53:32.930Z,5.77
2023-04-06T06:55:59.335Z,7.33
2023-04-06T06:58:25.725Z,7.50
2023-04-06T07:00:56.402Z,5.87
2023-04-06T07:03:22.879Z,8.07
2023-04-06T07:05:56.503Z,7.67
2023-04-06T07:08:24.399Z,8.23
2023-04-06T07:10:53.449Z,7.13
2023-04-06T07:13:24.345Z,5.60
2023-04-06T07:15:51.601Z,6.97
2023-04-06T07:18:18.854Z,6.07
2023-04-06T07:20:45.345Z,8.37
2023-04-06T07:23:12.136Z,7.57
2023-04-06T07:25:38.672Z,6.67
2023-04-06T07:28:05.370Z,6.97
2023-04-06T07:30:32.730Z,11.73
2023-04-06T07:33:00.657Z,8.97
2023-04-06T07:35:28.213Z,7.47
2023-04-06T07:37:55.563Z,7.43
2023-04-06T07:40:22.699Z,6.90
2023-04-06T07:42:49.318Z,6.90
2023-04-06T07:45:16.824Z,8.17
2023-04-06T07:47:43.690Z,9.13
2023-04-06T07:50:11.002Z,8.57
2023-04-06T07:52:38.389Z,9.60
2023-04-06T07:55:05.551Z,7.53
2023-04-06T07:57:31.990Z,8.53
2023-04-06T07:59:58.532Z,13.00
2023-04-06T08:02:25.117Z,6.23
2023-04-06T08:04:51.654Z,8.07
2023-04-06T08:07:18.149Z,9.10
2023-04-06T08:09:44.584Z,10.03
2023-04-06T08:12:10.989Z,7.87
2023-04-06T08:14:37.349Z,8.00
2023-04-06T08:17:06.250Z,7.57
2023-04-06T08:19:33.231Z,9.13
2023-04-06T08:21:59.648Z,7.07
2023-04-06T08:24:26.228Z,8.80
2023-04-06T08:26:52.912Z,9.93
2023-04-06T08:29:20.679Z,8.60
2023-04-06T08:31:47.176Z,7.80
2023-04-06T08:34:14.374Z,7.70
2023-04-06T08:36:41.613Z,8.33
2023-04-06T08:39:08.131Z,9.67
2023-04-06T08:41:35.617Z,8.97
2023-04-06T08:44:03.665Z,10.17
2023-04-06T08:46:31.512Z,7.23
2023-04-06T08:49:03.244Z,8.23
2023-04-06T08:51:31.249Z,7.57
2023-04-06T08:53:59.685Z,10.87
2023-04-06T08:56:27.812Z,9.07
2023-04-06T08:58:56.210Z,8.13
2023-04-06T09:01:26.482Z,10.67
2023-04-06T09:03:57.812Z,9.47
2023-04-06T09:06:27.390Z,8.47
2023-04-06T09:08:54.634Z,9.63
2023-04-06T09:11:21.278Z,10.10
2023-04-06T09:13:50.198Z,12.17
2023-04-06T09:16:16.958Z,12.67
2023-04-06T09:18:43.743Z,13.87
2023-04-06T09:21:11.166Z,11.90
2023-04-06T09:23:38.627Z,14.30
2023-04-06T09:26:09.263Z,9.43
2023-04-06T09:28:50.654Z,12.87
2023-04-06T09:31:22.387Z,11.83
2023-04-06T09:33:49.259Z,13.63
2023-04-06T09:36:16.838Z,12.50
2023-04-06T09:38:57.767Z,11.53
2023-04-06T09:41:31.668Z,14.57
2023-04-06T09:44:05.506Z,11.73
2023-04-06T09:46:54.854Z,10.17
2023-04-06T09:49:23.759Z,11.97
2023-04-06T09:51:56.748Z,12.97
2023-04-06T09:54:24.325Z,13.23
2023-04-06T09:56:56.905Z,11.37
2023-04-06T09:59:51.651Z,11.10
2023-04-06T10:02:37.241Z,10.47
2023-04-06T10:05:10.431Z,17.03
2023-04-06T10:07:46.482Z,13.07
2023-04-06T10:10:25.677Z,16.30
2023-04-06T10:12:52.187Z,14.10
2023-04-06T10:15:20.273Z,13.50
2023-04-06T10:17:48.705Z,13.83
2023-04-06T10:20:21.951Z,14.50
2023-04-06T10:23:08.828Z,15.83
2023-04-06T10:25:35.812Z,14.20
2023-04-06T10:28:06.213Z,13.93
2023-04-06T10:30:34.367Z,11.83
2023-04-06T10:33:00.841Z,12.40
2023-04-06T10:35:39.343Z,12.87
2023-04-06T10:38:06.314Z,13.47
2023-04-06T10:40:33.006Z,13.43
2023-04-06T10:43:13.880Z,13.03
2023-04-06T10:45:42.039Z,13.30
2023-04-06T10:48:19.492Z,13.10
2023-04-06T10:50:50.402Z,14.40
2023-04-06T10:53:24.637Z,12.73
2023-04-06T10:55:52.916Z,13.60
2023-04-06T10:58:20.099Z,12.97
2023-04-06T11:00:51.412Z,14.53
2023-04-06T11:03:18.968Z,14.43
2023-04-06T11:05:47.887Z,12.13
2023-04-06T11:08:23.878Z,14.27
2023-04-06T11:10:50.553Z,13.40
2023-04-06T11:13:17.035Z,13.37
2023-04-06T11:15:43.827Z,13.63
2023-04-06T11:18:12.363Z,12.20
2023-04-06T11:20:39.117Z,12.20
2023-04-06T11:23:05.641Z,11.77
2023-04-06T11:25:33.377Z,14.43
2023-04-06T11:28:00.140Z,11.97
2023-04-06T11:30:26.746Z,12.23
2023-04-06T11:32:53.236Z,14.07
2023-04-06T11:35:24.264Z,14.87
2023-04-06T11:37:51.669Z,13.27
2023-04-06T11:40:25.655Z,14.50
2023-04-06T11:42:58.785Z,15.67
2023-04-06T11:45:25.198Z,15.80
2023-04-06T11:48:02.240Z,12.73
2023-04-06T11:50:35.475Z,14.53
2023-04-06T11:53:03.890Z,14.33
2023-04-06T11:55:32.319Z,13.67
2023-04-06T11:58:00.136Z,13.87
2023-04-06T12:00:26.829Z,12.30
2023-04-06T12:02:53.313Z,17.27
2023-04-06T12:05:19.948Z,15.77
2023-04-06T12:07:46.910Z,15.60
2023-04-06T12:10:13.657Z,13.83
2023-04-06T12:12:40.285Z,14.00
2023-04-06T12:15:07.524Z,14.53
2023-04-06T12:17:33.943Z,16.97
2023-04-06T12:20:05.114Z,15.57
2023-04-06T12:22:32.447Z,12.93
2023-04-06T12:24:58.830Z,15.37
2023-04-06T12:27:25.950Z,12.73
2023-04-06T12:29:52.379Z,11.43
2023-04-06T12:32:18.929Z,11.23
2023-04-06T12:34:45.432Z,11.13
2023-04-06T12:37:11.800Z,13.83
2023-04-06T12:39:38.197Z,15.23
2023-04-06T12:42:05.562Z,9.90
2023-04-06T12:44:32.048Z,8.07
2023-04-06T12:46:58.475Z,11.70
2023-04-06T12:49:25.014Z,8.17
2023-04-06T12:51:51.645Z,7.43
2023-04-06T12:54:18.144Z,9.60
2023-04-06T12:56:44.571Z,8.20
2023-04-06T12:59:11.084Z,6.90
2023-04-06T13:01:38.169Z,7.73
2023-04-06T13:04:04.590Z,10.53
2023-04-06T13:06:31.225Z,8.23
2023-04-06T13:08:57.686Z,10.37
2023-04-06T13:11:26.249Z,8.00
2023-04-06T13:13:53.625Z,8.00
2023-04-06T13:16:20.396Z,8.03
2023-04-06T13:18:46.953Z,12.97
2023-04-06T13:21:17.267Z,8.20
2023-04-06T13:23:44.217Z,8.33
2023-04-06T13:26:10.613Z,7.73
2023-04-06T13:28:38.802Z,9.17
2023-04-06T13:31:06.219Z,8.67
2023-04-06T13:33:32.686Z,7.47
2023-04-06T13:35:59.675Z,7.93
2023-04-06T13:38:26.375Z,7.17
2023-04-06T13:40:52.924Z,7.83
2023-04-06T13:43:21.119Z,9.57
2023-04-06T13:45:52.227Z,11.30
2023-04-06T13:48:19.149Z,9.67
2023-04-06T13:50:46.630Z,10.17
2023-04-06T13:53:13.682Z,8.20
2023-04-06T13:55:40.014Z,8.57
2023-04-06T13:58:06.425Z,8.77
2023-04-06T14:00:32.802Z,9.07
2023-04-06T14:02:59.399Z,8.63
2023-04-06T14:05:27.394Z,8.20
2023-04-06T14:07:53.746Z,7.03
2023-04-06T14:10:22.124Z,8.60
2023-04-06T14:12:48.473Z,6.43
2023-04-06T14:15:14.876Z,9.80
2023-04-06T14:17:41.295Z,7.17
2023-04-06T14:20:08.416Z,8.13
2023-04-06T14:22:34.848Z,9.83
2023-04-06T14:25:01.486Z,7.57
2023-04-06T14:27:27.895Z,8.53
2023-04-06T14:29:55.038Z,9.13
2023-04-06T14:32:22.442Z,8.00
2023-04-06T14:34:48.873Z,12.40
2023-04-06T14:37:15.604Z,8.20
2023-04-06T14:39:41.962Z,6.60
2023-04-06T14:42:08.279Z,6.53
2023-04-06T14:44:37.484Z,5.70
2023-04-06T14:47:06.340Z,7.67
2023-04-06T14:49:32.946Z,5.80
2023-04-06T14:52:00.428Z,5.40
2023-04-06T14:54:26.880Z,5.87
2023-04-06T14:56:53.220Z,6.43
2023-04-06T14:59:19.575Z,8.70
2023-04-06T15:01:46.255Z,6.63
2023-04-06T15:04:12.828Z,10.37
2023-04-06T15:06:39.235Z,9.47
2023-04-06T15:09:05.642Z,6.70
2023-04-06T15:11:32.056Z,7.23
2023-04-06T15:13:58.410Z,6.23
2023-04-06T15:16:24.778Z,4.70
2023-04-06T15:18:51.169Z,5.27
2023-04-06T15:21:18.582Z,5.37
2023-04-06T15:23:45.031Z,6.07
2023-04-06T15:26:11.829Z,6.90
2023-04-06T15:28:38.173Z,5.87
2023-04-06T15:33:40.692Z,6.80
2023-04-06T15:36:21.567Z,6.07
2023-04-06T15:38:47.880Z,5.87
2023-04-06T15:41:14.938Z,6.33
2023-04-06T15:43:41.308Z,5.23
2023-04-06T15:48:38.916Z,4.93
2023-04-06T15:51:05.309Z,5.57
2023-04-06T15:53:32.415Z,5.97
2023-04-06T15:56:03.794Z,5.83
2023-04-06T15:58:30.163Z,8.33
2023-04-06T16:00:58.476Z,5.87
2023-04-06T16:03:25.443Z,5.47
2023-04-06T16:08:25.729Z,7.97
2023-04-06T16:10:52.333Z,6.80
2023-04-06T16:13:18.706Z,7.83
2023-04-06T16:15:45.253Z,6.10
2023-04-06T16:18:11.573Z,5.97
2023-04-06T16:20:38.102Z,6.93
2023-04-06T16:23:04.577Z,7.97
2023-04-06T16:25:31.032Z,7.20
2023-04-06T16:27:57.418Z,9.37
2023-04-06T16:30:26.032Z,7.97
2023-04-06T16:32:53.054Z,6.97
2023-04-06T16:35:20.515Z,7.63
2023-04-06T16:37:46.938Z,10.87
2023-04-06T16:40:13.448Z,9.23
2023-04-06T16:42:39.811Z,12.47
2023-04-06T16:45:07.230Z,7.93
2023-04-06T16:47:33.671Z,8.10
2023-04-06T16:50:05.340Z,8.30
2023-04-06T16:52:33.956Z,6.90
2023-04-06T16:55:00.663Z,8.47
2023-04-06T16:57:29.653Z,7.70
2023-04-06T16:59:56.551Z,7.53
2023-04-06T17:02:24.296Z,8.73
2023-04-06T17:04:51.064Z,10.10
2023-04-06T17:07:17.467Z,8.07
2023-04-06T17:09:43.935Z,8.87
2023-04-06T17:12:10.296Z,9.73
2023-04-06T17:14:36.735Z,7.63
2023-04-06T17:17:03.828Z,8.43
2023-04-06T17:19:30.329Z,7.67
2023-04-06T17:21:56.692Z,8.77
2023-04-06T17:24:23.177Z,9.63
2023-04-06T17:26:49.506Z,8.27
2023-04-06T17:29:15.951Z,8.90
2023-04-06T17:31:44.930Z,6.80
2023-04-06T17:34:11.486Z,8.77
2023-04-06T17:36:38.054Z,6.83
2023-04-06T17:39:04.599Z,9.30
2023-04-06T17:41:32.749Z,8.27
2023-04-06T17:43:59.072Z,8.13
2023-04-06T17:46:25.696Z,10.13
2023-04-06T17:48:53.065Z,8.57
2023-04-06T17:51:20.693Z,9.53
2023-04-06T17:53:47.452Z,8.93
2023-04-06T17:56:14.046Z,10.57
2023-04-06T17:58:40.621Z,8.07
2023-04-06T18:01:08.508Z,8.23
2023-04-06T18:03:34.996Z,9.27
2023-04-06T18:06:11.597Z,9.67
2023-04-06T18:08:38.062Z,9.63
2023-04-06T18:11:04.537Z,9.17
2023-04-06T18:13:31.145Z,10.47
2023-04-06T18:16:01.052Z,10.50
2023-04-06T18:18:28.961Z,10.47
2023-04-06T18:20:56.022Z,11.60
2023-04-06T18:23:22.476Z,13.33
2023-04-06T18:25:48.866Z,12.33
2023-04-06T18:28:15.490Z,9.53
2023-04-06T18:30:41.867Z,9.70
2023-04-06T18:33:08.220Z,12.37
2023-04-06T18:35:34.673Z,9.63
2023-04-06T18:38:01.178Z,9.93
2023-04-06T18:40:36.561Z,10.00
2023-04-06T18:43:04.644Z,9.83
2023-04-06T18:45:35.610Z,9.80
2023-04-06T18:48:02.331Z,9.97
2023-04-06T18:50:28.752Z,11.10
2023-04-06T18:52:55.252Z,12.07
2023-04-06T18:55:21.673Z,9.87
2023-04-06T18:57:48.192Z,13.70
2023-04-06T19:00:16.710Z,11.40
2023-04-06T19:02:44.221Z,12.47
2023-04-06T19:05:11.706Z,9.57
2023-04-06T19:07:39.177Z,10.50
2023-04-06T19:10:06.869Z,10.60
2023-04-06T19:12:38.814Z,11.40
2023-04-06T19:15:07.652Z,13.30
2023-04-06T19:17:34.156Z,10.20
2023-04-06T19:20:00.950Z,10.30
2023-04-06T19:22:27.454Z,10.70
2023-04-06T19:24:53.916Z,9.43
2023-04-06T19:27:20.349Z,8.90
2023-04-06T19:29:46.695Z,9.20
2023-04-06T19:32:13.220Z,9.83
2023-04-06T19:34:39.752Z,9.23
2023-04-06T19:37:06.638Z,9.63
2023-04-06T19:39:36.542Z,9.63
2023-04-06T19:42:03.409Z,9.07
2023-04-06T19:44:29.862Z,9.37
2023-04-06T19:46:56.601Z,8.40
2023-04-06T19:49:23.167Z,11.27
2023-04-06T19:51:49.542Z,8.77
2023-04-06T19:54:15.865Z,10.63
2023-04-06T19:56:42.246Z,9.80
2023-04-06T19:59:10.887Z,8.87
2023-04-06T20:01:37.514Z,8.40
2023-04-06T20:04:04.176Z,8.33
2023-04-06T20:06:31.223Z,8.10
2023-04-06T20:08:57.672Z,7.07
2023-04-06T20:11:23.988Z,7.93
2023-04-06T20:13:50.378Z,7.30
2023-04-06T20:16:16.858Z,7.77
2023-04-06T20:18:43.294Z,7.63
2023-04-06T20:21:09.807Z,7.40
2023-04-06T20:23:37.408Z,6.57
2023-04-06T20:26:08.084Z,5.90
2023-04-06T20:28:34.418Z,6.43
2023-04-06T20:31:00.756Z,7.80
2023-04-06T20:33:27.169Z,6.47
2023-04-06T20:36:01.231Z,6.90
2023-04-06T20:40:59.358Z,6.57
2023-04-06T20:43:30.167Z,6.90
2023-04-06T20:45:57.839Z,7.53
2023-04-06T20:48:27.631Z,6.90
2023-04-06T20:50:53.961Z,6.60
2023-04-06T20:53:20.885Z,7.83
2023-04-06T20:55:47.524Z,8.90
2023-04-06T20:58:16.547Z,6.50
2023-04-06T21:00:42.918Z,7.37
2023-04-06T21:03:09.439Z,7.17
2023-04-06T21:05:36.138Z,6.60
2023-04-06T21:08:02.649Z,6.63
2023-04-06T21:10:29.120Z,6.27
2023-04-06T21:12:55.626Z,6.33
2023-04-06T21:15:22.689Z,6.10
2023-04-06T21:17:49.732Z,6.60
2023-04-06T21:20:16.263Z,6.73
2023-04-06T21:22:42.623Z,9.17
2023-04-06T21:25:09.272Z,7.30
2023-04-06T21:27:35.727Z,6.73
2023-04-06T21:30:02.139Z,6.27
2023-04-06T21:32:28.747Z,6.20
2023-04-06T21:34:55.282Z,6.33
2023-04-06T21:37:21.807Z,6.20
2023-04-06T21:39:48.426Z,5.80
2023-04-06T21:42:14.819Z,7.00
2023-04-06T21:44:41.127Z,6.43
2023-04-06T21:47:07.852Z,6.67
2023-04-06T21:49:34.375Z,6.97
2023-04-06T21:52:00.746Z,7.57
2023-04-06T21:54:32.150Z,7.40
2023-04-06T21:56:58.650Z,6.60
2023-04-06T21:59:25.656Z,8.70
2023-04-06T22:01:52.986Z,6.70
2023-04-06T22:04:21.172Z,6.47
2023-04-06T22:06:48.137Z,7.03
2023-04-06T22:09:14.842Z,7.10
2023-04-06T22:11:41.199Z,6.93
2023-04-06T22:14:07.608Z,7.20
2023-04-06T22:16:34.061Z,7.40
2023-04-06T22:19:00.793Z,7.20
2023-04-06T22:21:27.326Z,7.53
2023-04-06T22:23:54.145Z,7.70
2023-04-06T22:26:20.861Z,7.90
2023-04-06T22:28:47.203Z,8.00
2023-04-06T22:31:13.879Z,7.80
2023-04-06T22:33:40.315Z,7.83
2023-04-06T22:36:07.006Z,8.23
2023-04-06T22:38:33.398Z,8.30
2023-04-06T22:40:59.702Z,8.93
2023-04-06T22:43:26.022Z,9.50
2023-04-06T22:45:52.316Z,9.23
2023-04-06T22:48:18.763Z,9.37
2023-04-06T22:50:45.216Z,9.37
2023-04-06T22:53:11.563Z,9.57
2023-04-06T22:55:42.162Z,9.13
2023-04-06T22:58:08.533Z,9.37
2023-04-06T23:00:34.909Z,9.60
2023-04-06T23:03:01.465Z,10.13
2023-04-06T23:05:28.196Z,13.67
2023-04-06T23:07:54.600Z,11.43
2023-04-06T23:10:21.046Z,12.50
2023-04-06T23:12:48.269Z,11.77
2023-04-06T23:15:14.815Z,11.83
2023-04-06T23:17:41.287Z,13.80
2023-04-06T23:20:08.050Z,12.63
2023-04-06T23:22:34.425Z,11.47
2023-04-06T23:25:01.061Z,13.10
2023-04-06T23:27:27.374Z,11.50
2023-04-06T23:29:54.212Z,12.20
2023-04-06T23:32:20.752Z,12.40
2023-04-06T23:34:47.091Z,11.70
2023-04-06T23:37:13.510Z,12.97
2023-04-06T23:39:39.907Z,13.30
2023-04-06T23:42:06.384Z,12.83
2023-04-06T23:44:32.704Z,13.33
2023-04-06T23:46:59.251Z,13.50
2023-04-06T23:49:25.579Z,13.43
2023-04-06T23:51:51.934Z,13.77
2023-04-06T23:54:18.272Z,16.20
2023-04-06T23:56:44.680Z,13.60
2023-04-06T23:59:11.358Z,15.00
